sensor_id;sensor_type;location;lat;lon;timestamp;temperature;humidity
3548;DHT22;1788;49.400;11.092;2022-08-18T00:01:47;24.60;48.30
3548;DHT22;1788;49.400;11.092;2022-08-18T00:04:12;24.50;48.20
3548;DHT22;1788;49.400;11.092;2022-08-18T00:06:38;24.40;48.10
3548;DHT22;1788;49.400;11.092;2022-08-18T00:09:05;24.30;48.00
3548;DHT22;1788;49.400;11.092;2022-08-18T00:11:35;24.30;48.00
3548;DHT22;1788;49.400;11.092;2022-08-18T00:13:59;24.40;47.80
3548;DHT22;1788;49.400;11.092;2022-08-18T00:16:25;24.40;47.80
3548;DHT22;1788;49.400;11.092;2022-08-18T00:18:53;24.40;47.50
3548;DHT22;1788;49.400;11.092;2022-08-18T00:21:19;24.40;47.50
3548;DHT22;1788;49.400;11.092;2022-08-18T00:23:46;24.50;47.40
3548;DHT22;1788;49.400;11.092;2022-08-18T00:26:13;24.50;47.20
3548;DHT22;1788;49.400;11.092;2022-08-18T00:28:39;24.60;47.20
3548;DHT22;1788;49.400;11.092;2022-08-18T00:31:07;24.70;46.90
3548;DHT22;1788;49.400;11.092;2022-08-18T00:33:33;24.70;46.90
3548;DHT22;1788;49.400;11.092;2022-08-18T00:36:01;24.80;47.70
3548;DHT22;1788;49.400;11.092;2022-08-18T00:38:27;24.80;47.10
3548;DHT22;1788;49.400;11.092;2022-08-18T00:40:55;24.70;47.50
3548;DHT22;1788;49.400;11.092;2022-08-18T00:45:48;24.60;48.40
3548;DHT22;1788;49.400;11.092;2022-08-18T00:48:14;24.50;48.80
3548;DHT22;1788;49.400;11.092;2022-08-18T00:55:36;23.90;50.60
3548;DHT22;1788;49.400;11.092;2022-08-18T01:00:30;23.70;51.70
3548;DHT22;1788;49.400;11.092;2022-08-18T01:02:57;23.60;51.60
3548;DHT22;1788;49.400;11.092;2022-08-18T01:07:50;23.50;52.50
3548;DHT22;1788;49.400;11.092;2022-08-18T01:10:19;23.40;52.70
3548;DHT22;1788;49.400;11.092;2022-08-18T01:12:46;23.40;53.00
3548;DHT22;1788;49.400;11.092;2022-08-18T01:15:11;23.30;53.20
3548;DHT22;1788;49.400;11.092;2022-08-18T01:17:39;23.30;53.70
3548;DHT22;1788;49.400;11.092;2022-08-18T01:20:05;23.20;53.60
3548;DHT22;1788;49.400;11.092;2022-08-18T01:24:59;23.20;54.00
3548;DHT22;1788;49.400;11.092;2022-08-18T01:27:25;23.20;54.20
3548;DHT22;1788;49.400;11.092;2022-08-18T01:29:52;23.20;54.50
3548;DHT22;1788;49.400;11.092;2022-08-18T01:32:20;23.10;55.10
3548;DHT22;1788;49.400;11.092;2022-08-18T01:34:46;23.00;55.00
3548;DHT22;1788;49.400;11.092;2022-08-18T01:37:15;22.80;55.90
3548;DHT22;1788;49.400;11.092;2022-08-18T01:39:40;22.80;55.90
3548;DHT22;1788;49.400;11.092;2022-08-18T01:42:07;22.70;56.10
3548;DHT22;1788;49.400;11.092;2022-08-18T01:44:34;22.60;56.40
3548;DHT22;1788;49.400;11.092;2022-08-18T01:47:00;22.60;56.70
3548;DHT22;1788;49.400;11.092;2022-08-18T01:49:27;22.50;57.00
3548;DHT22;1788;49.400;11.092;2022-08-18T01:51:54;22.40;57.30
3548;DHT22;1788;49.400;11.092;2022-08-18T01:54:21;22.30;57.80
3548;DHT22;1788;49.400;11.092;2022-08-18T01:56:48;22.30;57.80
3548;DHT22;1788;49.400;11.092;2022-08-18T01:59:15;22.10;58.70
3548;DHT22;1788;49.400;11.092;2022-08-18T02:01:43;22.10;58.30
3548;DHT22;1788;49.400;11.092;2022-08-18T02:04:09;22.00;58.90
3548;DHT22;1788;49.400;11.092;2022-08-18T02:06:36;22.00;58.90
3548;DHT22;1788;49.400;11.092;2022-08-18T02:09:02;22.00;59.20
3548;DHT22;1788;49.400;11.092;2022-08-18T02:11:29;22.10;59.50
3548;DHT22;1788;49.400;11.092;2022-08-18T02:13:55;22.10;59.60
3548;DHT22;1788;49.400;11.092;2022-08-18T02:16:22;22.10;59.70
3548;DHT22;1788;49.400;11.092;2022-08-18T02:18:49;22.10;60.00
3548;DHT22;1788;49.400;11.092;2022-08-18T02:21:17;22.00;59.90
3548;DHT22;1788;49.400;11.092;2022-08-18T02:23:43;21.90;60.40
3548;DHT22;1788;49.400;11.092;2022-08-18T02:26:11;21.90;60.40
3548;DHT22;1788;49.400;11.092;2022-08-18T02:28:37;21.90;60.70
3548;DHT22;1788;49.400;11.092;2022-08-18T02:31:05;21.80;61.40
3548;DHT22;1788;49.400;11.092;2022-08-18T02:33:30;21.80;61.10
3548;DHT22;1788;49.400;11.092;2022-08-18T02:35:56;21.70;61.30
3548;DHT22;1788;49.400;11.092;2022-08-18T02:38:23;21.70;61.50
3548;DHT22;1788;49.400;11.092;2022-08-18T02:43:16;21.70;61.90
3548;DHT22;1788;49.400;11.092;2022-08-18T02:45:43;21.70;62.00
3548;DHT22;1788;49.400;11.092;2022-08-18T02:48:10;21.70;62.10
3548;DHT22;1788;49.400;11.092;2022-08-18T02:50:36;21.70;62.10
3548;DHT22;1788;49.400;11.092;2022-08-18T02:53:03;21.70;62.30
3548;DHT22;1788;49.400;11.092;2022-08-18T02:55:29;21.80;62.40
3548;DHT22;1788;49.400;11.092;2022-08-18T02:57:56;21.80;62.40
3548;DHT22;1788;49.400;11.092;2022-08-18T03:00:23;22.00;62.70
3548;DHT22;1788;49.400;11.092;2022-08-18T03:02:50;22.00;62.60
3548;DHT22;1788;49.400;11.092;2022-08-18T03:05:17;22.10;62.90
3548;DHT22;1788;49.400;11.092;2022-08-18T03:07:43;22.10;62.90
3548;DHT22;1788;49.400;11.092;2022-08-18T03:10:11;22.20;62.70
3548;DHT22;1788;49.400;11.092;2022-08-18T03:12:37;22.20;62.70
3548;DHT22;1788;49.400;11.092;2022-08-18T03:15:05;22.30;62.70
3548;DHT22;1788;49.400;11.092;2022-08-18T03:17:33;22.30;62.70
3548;DHT22;1788;49.400;11.092;2022-08-18T03:19:59;22.50;63.30
3548;DHT22;1788;49.400;11.092;2022-08-18T03:22:25;22.50;62.50
3548;DHT22;1788;49.400;11.092;2022-08-18T03:24:53;22.60;62.20
3548;DHT22;1788;49.400;11.092;2022-08-18T03:27:19;22.60;62.20
3548;DHT22;1788;49.400;11.092;2022-08-18T03:29:46;22.60;62.10
3548;DHT22;1788;49.400;11.092;2022-08-18T03:32:13;22.70;62.20
3548;DHT22;1788;49.400;11.092;2022-08-18T03:34:39;22.80;62.10
3548;DHT22;1788;49.400;11.092;2022-08-18T03:37:06;22.90;62.10
3548;DHT22;1788;49.400;11.092;2022-08-18T03:39:33;22.90;62.00
3548;DHT22;1788;49.400;11.092;2022-08-18T03:42:00;22.90;62.00
3548;DHT22;1788;49.400;11.092;2022-08-18T03:44:29;23.00;62.50
3548;DHT22;1788;49.400;11.092;2022-08-18T03:46:54;22.90;62.10
3548;DHT22;1788;49.400;11.092;2022-08-18T03:49:21;22.90;62.10
3548;DHT22;1788;49.400;11.092;2022-08-18T03:51:47;23.00;62.30
3548;DHT22;1788;49.400;11.092;2022-08-18T03:54:15;23.00;62.30
3548;DHT22;1788;49.400;11.092;2022-08-18T03:56:41;23.00;62.40
3548;DHT22;1788;49.400;11.092;2022-08-18T03:59:09;22.90;62.40
3548;DHT22;1788;49.400;11.092;2022-08-18T04:01:35;22.90;62.50
3548;DHT22;1788;49.400;11.092;2022-08-18T04:04:02;23.00;62.80
3548;DHT22;1788;49.400;11.092;2022-08-18T04:06:29;22.90;62.90
3548;DHT22;1788;49.400;11.092;2022-08-18T04:08:55;22.90;63.80
3548;DHT22;1788;49.400;11.092;2022-08-18T04:11:22;22.90;63.20
3548;DHT22;1788;49.400;11.092;2022-08-18T04:13:48;22.80;63.30
3548;DHT22;1788;49.400;11.092;2022-08-18T04:16:15;22.80;63.30
3548;DHT22;1788;49.400;11.092;2022-08-18T04:18:42;22.70;63.50
3548;DHT22;1788;49.400;11.092;2022-08-18T04:21:11;22.70;63.50
3548;DHT22;1788;49.400;11.092;2022-08-18T04:23:37;22.60;63.80
3548;DHT22;1788;49.400;11.092;2022-08-18T04:26:04;22.60;63.80
3548;DHT22;1788;49.400;11.092;2022-08-18T04:28:31;22.40;64.20
3548;DHT22;1788;49.400;11.092;2022-08-18T04:30:58;22.40;64.00
3548;DHT22;1788;49.400;11.092;2022-08-18T04:33:25;22.40;64.80
3548;DHT22;1788;49.400;11.092;2022-08-18T04:35:52;22.40;64.50
3548;DHT22;1788;49.400;11.092;2022-08-18T04:38:20;22.40;64.60
3548;DHT22;1788;49.400;11.092;2022-08-18T04:40:46;22.30;64.50
3548;DHT22;1788;49.400;11.092;2022-08-18T04:43:13;22.30;64.60
3548;DHT22;1788;49.400;11.092;2022-08-18T04:45:40;22.30;64.70
3548;DHT22;1788;49.400;11.092;2022-08-18T04:48:06;22.30;64.70
3548;DHT22;1788;49.400;11.092;2022-08-18T04:50:35;22.30;64.80
3548;DHT22;1788;49.400;11.092;2022-08-18T04:53:02;22.30;64.80
3548;DHT22;1788;49.400;11.092;2022-08-18T04:55:29;22.30;64.80
3548;DHT22;1788;49.400;11.092;2022-08-18T04:57:56;22.30;65.10
3548;DHT22;1788;49.400;11.092;2022-08-18T05:00:23;22.30;65.10
3548;DHT22;1788;49.400;11.092;2022-08-18T05:02:50;22.30;65.10
3548;DHT22;1788;49.400;11.092;2022-08-18T05:05:16;22.30;64.50
3548;DHT22;1788;49.400;11.092;2022-08-18T05:10:10;22.40;65.10
3548;DHT22;1788;49.400;11.092;2022-08-18T05:12:37;22.50;65.20
3548;DHT22;1788;49.400;11.092;2022-08-18T05:15:04;22.50;65.10
3548;DHT22;1788;49.400;11.092;2022-08-18T05:17:31;22.60;65.20
3548;DHT22;1788;49.400;11.092;2022-08-18T05:19:58;22.50;65.10
3548;DHT22;1788;49.400;11.092;2022-08-18T05:22:25;22.60;64.80
3548;DHT22;1788;49.400;11.092;2022-08-18T05:24:51;22.70;65.20
3548;DHT22;1788;49.400;11.092;2022-08-18T05:27:19;22.70;65.10
3548;DHT22;1788;49.400;11.092;2022-08-18T05:29:45;22.70;65.00
3548;DHT22;1788;49.400;11.092;2022-08-18T05:32:13;22.80;65.00
3548;DHT22;1788;49.400;11.092;2022-08-18T05:34:39;22.80;65.00
3548;DHT22;1788;49.400;11.092;2022-08-18T05:42:01;22.80;64.90
3548;DHT22;1788;49.400;11.092;2022-08-18T05:46:54;22.70;64.90
3548;DHT22;1788;49.400;11.092;2022-08-18T05:49:20;22.70;65.10
3548;DHT22;1788;49.400;11.092;2022-08-18T05:51:48;22.70;65.10
3548;DHT22;1788;49.400;11.092;2022-08-18T05:54:14;22.70;65.30
3548;DHT22;1788;49.400;11.092;2022-08-18T05:56:40;22.80;65.40
3548;DHT22;1788;49.400;11.092;2022-08-18T05:59:07;22.80;65.40
3548;DHT22;1788;49.400;11.092;2022-08-18T06:01:37;22.80;65.50
3548;DHT22;1788;49.400;11.092;2022-08-18T06:04:02;22.80;65.50
3548;DHT22;1788;49.400;11.092;2022-08-18T06:06:28;22.80;66.00
3548;DHT22;1788;49.400;11.092;2022-08-18T06:11:22;22.80;65.40
3548;DHT22;1788;49.400;11.092;2022-08-18T06:13:49;22.90;65.50
3548;DHT22;1788;49.400;11.092;2022-08-18T06:26:07;22.90;65.40
3548;DHT22;1788;49.400;11.092;2022-08-18T06:28:35;23.00;65.50
3548;DHT22;1788;49.400;11.092;2022-08-18T06:30:59;23.00;65.40
3548;DHT22;1788;49.400;11.092;2022-08-18T06:35:51;23.30;65.30
3548;DHT22;1788;49.400;11.092;2022-08-18T06:38:24;23.30;65.30
3548;DHT22;1788;49.400;11.092;2022-08-18T06:40:45;23.40;65.10
3548;DHT22;1788;49.400;11.092;2022-08-18T06:43:11;23.40;64.70
3548;DHT22;1788;49.400;11.092;2022-08-18T06:45:37;23.40;64.50
3548;DHT22;1788;49.400;11.092;2022-08-18T06:48:06;23.50;64.30
3548;DHT22;1788;49.400;11.092;2022-08-18T06:52:59;23.70;64.00
3548;DHT22;1788;49.400;11.092;2022-08-18T06:57:53;23.90;63.40
3548;DHT22;1788;49.400;11.092;2022-08-18T07:02:47;24.10;62.40
3548;DHT22;1788;49.400;11.092;2022-08-18T07:07:40;24.20;62.10
3548;DHT22;1788;49.400;11.092;2022-08-18T07:12:34;24.50;60.80
3548;DHT22;1788;49.400;11.092;2022-08-18T07:15:02;24.50;61.30
3548;DHT22;1788;49.400;11.092;2022-08-18T07:17:28;24.70;61.10
3548;DHT22;1788;49.400;11.092;2022-08-18T07:19:54;24.80;60.60
3548;DHT22;1788;49.400;11.092;2022-08-18T07:22:20;24.80;60.10
3548;DHT22;1788;49.400;11.092;2022-08-18T07:24:48;24.90;59.90
3548;DHT22;1788;49.400;11.092;2022-08-18T07:27:15;24.80;59.60
3548;DHT22;1788;49.400;11.092;2022-08-18T07:32:09;24.80;59.40
3548;DHT22;1788;49.400;11.092;2022-08-18T07:46:52;25.30;58.60
3548;DHT22;1788;49.400;11.092;2022-08-18T07:49:18;25.20;58.40
3548;DHT22;1788;49.400;11.092;2022-08-18T08:01:32;25.30;57.80
3548;DHT22;1788;49.400;11.092;2022-08-18T08:18:37;26.40;56.60
3548;DHT22;1788;49.400;11.092;2022-08-18T08:21:05;26.60;56.40
3548;DHT22;1788;49.400;11.092;2022-08-18T08:35:43;26.70;55.10
3548;DHT22;1788;49.400;11.092;2022-08-18T08:38:10;26.70;54.90
3548;DHT22;1788;49.400;11.092;2022-08-18T08:43:03;26.70;54.60
3548;DHT22;1788;49.400;11.092;2022-08-18T08:45:29;26.60;54.50
3548;DHT22;1788;49.400;11.092;2022-08-18T08:50:25;26.60;54.40
3548;DHT22;1788;49.400;11.092;2022-08-18T08:57:50;26.80;54.10
3548;DHT22;1788;49.400;11.092;2022-08-18T09:00:12;26.90;53.80
3548;DHT22;1788;49.400;11.092;2022-08-18T09:02:45;26.80;53.80
3548;DHT22;1788;49.400;11.092;2022-08-18T09:05:09;26.90;53.70
3548;DHT22;1788;49.400;11.092;2022-08-18T09:22:21;27.40;52.60
3548;DHT22;1788;49.400;11.092;2022-08-18T09:24:45;27.50;52.60
3548;DHT22;1788;49.400;11.092;2022-08-18T09:27:15;27.50;52.50
3548;DHT22;1788;49.400;11.092;2022-08-18T09:39:32;27.70;51.70
3548;DHT22;1788;49.400;11.092;2022-08-18T09:46:49;27.90;51.20
3548;DHT22;1788;49.400;11.092;2022-08-18T09:51:39;28.00;50.90
3548;DHT22;1788;49.400;11.092;2022-08-18T09:54:08;28.00;50.80
3548;DHT22;1788;49.400;11.092;2022-08-18T09:58:59;28.00;50.70
3548;DHT22;1788;49.400;11.092;2022-08-18T10:06:19;28.60;50.00
3548;DHT22;1788;49.400;11.092;2022-08-18T10:08:51;28.80;49.80
3548;DHT22;1788;49.400;11.092;2022-08-18T10:11:17;28.90;49.50
3548;DHT22;1788;49.400;11.092;2022-08-18T10:21:02;29.10;48.80
3548;DHT22;1788;49.400;11.092;2022-08-18T10:25:54;29.20;48.50
3548;DHT22;1788;49.400;11.092;2022-08-18T10:30:59;29.50;48.10
3548;DHT22;1788;49.400;11.092;2022-08-18T10:33:52;29.50;47.90
3548;DHT22;1788;49.400;11.092;2022-08-18T10:38:11;29.50;47.40
3548;DHT22;1788;49.400;11.092;2022-08-18T10:40:35;29.40;47.30
3548;DHT22;1788;49.400;11.092;2022-08-18T10:45:30;29.20;47.40
3548;DHT22;1788;49.400;11.092;2022-08-18T10:47:58;29.10;47.40
3548;DHT22;1788;49.400;11.092;2022-08-18T10:50:24;29.10;47.30
3548;DHT22;1788;49.400;11.092;2022-08-18T11:00:12;29.10;47.20
3548;DHT22;1788;49.400;11.092;2022-08-18T11:05:07;29.10;47.00
3548;DHT22;1788;49.400;11.092;2022-08-18T11:07:33;29.00;46.90
3548;DHT22;1788;49.400;11.092;2022-08-18T11:10:00;29.00;46.80
3548;DHT22;1788;49.400;11.092;2022-08-18T11:19:46;28.70;47.10
3548;DHT22;1788;49.400;11.092;2022-08-18T11:24:43;29.10;46.90
3548;DHT22;1788;49.400;11.092;2022-08-18T11:27:15;29.30;46.70
3548;DHT22;1788;49.400;11.092;2022-08-18T11:32:02;29.80;46.00
3548;DHT22;1788;49.400;11.092;2022-08-18T11:34:29;30.10;45.70
3548;DHT22;1788;49.400;11.092;2022-08-18T11:39:22;30.50;45.20
3548;DHT22;1788;49.400;11.092;2022-08-18T11:41:48;30.70;44.90
3548;DHT22;1788;49.400;11.092;2022-08-18T11:46:41;30.80;44.50
3548;DHT22;1788;49.400;11.092;2022-08-18T11:51:35;30.80;44.30
3548;DHT22;1788;49.400;11.092;2022-08-18T11:54:18;30.60;44.30
3548;DHT22;1788;49.400;11.092;2022-08-18T11:56:30;30.50;44.40
3548;DHT22;1788;49.400;11.092;2022-08-18T12:03:51;30.40;44.40
3548;DHT22;1788;49.400;11.092;2022-08-18T12:06:19;30.30;44.30
3548;DHT22;1788;49.400;11.092;2022-08-18T12:11:16;30.00;44.30
3548;DHT22;1788;49.400;11.092;2022-08-18T12:18:34;29.80;44.30
3548;DHT22;1788;49.400;11.092;2022-08-18T12:21:01;29.60;44.40
3548;DHT22;1788;49.400;11.092;2022-08-18T12:23:29;29.60;44.60
3548;DHT22;1788;49.400;11.092;2022-08-18T12:25:55;29.50;44.60
3548;DHT22;1788;49.400;11.092;2022-08-18T12:28:22;29.50;44.70
3548;DHT22;1788;49.400;11.092;2022-08-18T12:30:49;29.40;44.70
3548;DHT22;1788;49.400;11.092;2022-08-18T12:33:16;29.50;44.90
3548;DHT22;1788;49.400;11.092;2022-08-18T12:35:43;29.50;44.90
3548;DHT22;1788;49.400;11.092;2022-08-18T12:38:10;29.50;44.80
3548;DHT22;1788;49.400;11.092;2022-08-18T12:40:36;29.70;44.80
3548;DHT22;1788;49.400;11.092;2022-08-18T12:43:02;29.80;44.60
3548;DHT22;1788;49.400;11.092;2022-08-18T12:45:29;29.90;44.50
3548;DHT22;1788;49.400;11.092;2022-08-18T12:47:56;30.00;44.30
3548;DHT22;1788;49.400;11.092;2022-08-18T12:50:23;30.10;44.20
3548;DHT22;1788;49.400;11.092;2022-08-18T12:52:51;30.30;44.20
3548;DHT22;1788;49.400;11.092;2022-08-18T12:55:18;30.50;44.00
3548;DHT22;1788;49.400;11.092;2022-08-18T12:57:46;30.90;43.60
3548;DHT22;1788;49.400;11.092;2022-08-18T13:00:13;31.40;42.90
3548;DHT22;1788;49.400;11.092;2022-08-18T13:02:39;31.80;42.20
3548;DHT22;1788;49.400;11.092;2022-08-18T13:05:06;32.00;41.80
3548;DHT22;1788;49.400;11.092;2022-08-18T13:07:32;32.30;41.40
3548;DHT22;1788;49.400;11.092;2022-08-18T13:09:59;32.60;41.00
3548;DHT22;1788;49.400;11.092;2022-08-18T13:12:26;33.10;40.60
3548;DHT22;1788;49.400;11.092;2022-08-18T13:14:53;33.50;40.00
3548;DHT22;1788;49.400;11.092;2022-08-18T13:17:19;34.10;39.50
3548;DHT22;1788;49.400;11.092;2022-08-18T13:19:47;34.50;38.70
3548;DHT22;1788;49.400;11.092;2022-08-18T13:22:15;34.90;38.20
3548;DHT22;1788;49.400;11.092;2022-08-18T13:29:37;35.80;36.90
3548;DHT22;1788;49.400;11.092;2022-08-18T13:46:50;36.00;35.90
3548;DHT22;1788;49.400;11.092;2022-08-18T13:49:18;36.00;35.80
3548;DHT22;1788;49.400;11.092;2022-08-18T13:51:44;36.10;35.80
3548;DHT22;1788;49.400;11.092;2022-08-18T13:56:39;36.50;35.20
3548;DHT22;1788;49.400;11.092;2022-08-18T13:59:07;36.50;35.00
3548;DHT22;1788;49.400;11.092;2022-08-18T14:01:35;36.50;34.80
3548;DHT22;1788;49.400;11.092;2022-08-18T14:06:29;36.20;34.90
3548;DHT22;1788;49.400;11.092;2022-08-18T14:08:57;36.10;34.80
3548;DHT22;1788;49.400;11.092;2022-08-18T14:11:26;36.00;35.50
3548;DHT22;1788;49.400;11.092;2022-08-18T14:13:51;36.00;34.90
3548;DHT22;1788;49.400;11.092;2022-08-18T14:16:17;36.00;34.80
3548;DHT22;1788;49.400;11.092;2022-08-18T14:18:44;36.00;34.60
3548;DHT22;1788;49.400;11.092;2022-08-18T14:21:11;36.00;34.50
3548;DHT22;1788;49.400;11.092;2022-08-18T14:23:37;35.90;34.40
3548;DHT22;1788;49.400;11.092;2022-08-18T14:26:04;35.90;34.50
3548;DHT22;1788;49.400;11.092;2022-08-18T14:28:31;35.70;34.40
3548;DHT22;1788;49.400;11.092;2022-08-18T14:30:57;35.50;34.50
3548;DHT22;1788;49.400;11.092;2022-08-18T14:33:24;35.30;34.60
3548;DHT22;1788;49.400;11.092;2022-08-18T14:35:51;34.90;34.80
3548;DHT22;1788;49.400;11.092;2022-08-18T14:38:19;34.40;35.60
3548;DHT22;1788;49.400;11.092;2022-08-18T14:40:45;34.30;35.50
3548;DHT22;1788;49.400;11.092;2022-08-18T14:43:14;33.90;36.20
3548;DHT22;1788;49.400;11.092;2022-08-18T14:45:41;33.90;35.90
3548;DHT22;1788;49.400;11.092;2022-08-18T14:48:08;33.60;36.40
3548;DHT22;1788;49.400;11.092;2022-08-18T14:50:34;33.50;36.40
3548;DHT22;1788;49.400;11.092;2022-08-18T14:53:01;33.40;36.60
3548;DHT22;1788;49.400;11.092;2022-08-18T14:55:28;33.30;36.70
3548;DHT22;1788;49.400;11.092;2022-08-18T14:57:54;33.10;36.70
3548;DHT22;1788;49.400;11.092;2022-08-18T15:00:22;32.90;37.00
3548;DHT22;1788;49.400;11.092;2022-08-18T15:02:49;32.50;37.60
3548;DHT22;1788;49.400;11.092;2022-08-18T15:05:15;32.50;37.60
3548;DHT22;1788;49.400;11.092;2022-08-18T15:07:43;32.40;37.70
3548;DHT22;1788;49.400;11.092;2022-08-18T15:10:10;32.40;38.00
3548;DHT22;1788;49.400;11.092;2022-08-18T15:12:36;32.30;38.00
3548;DHT22;1788;49.400;11.092;2022-08-18T15:15:03;32.30;38.20
3548;DHT22;1788;49.400;11.092;2022-08-18T15:17:29;32.30;38.80
3548;DHT22;1788;49.400;11.092;2022-08-18T15:19:56;32.30;38.30
3548;DHT22;1788;49.400;11.092;2022-08-18T15:22:22;32.30;38.20
3548;DHT22;1788;49.400;11.092;2022-08-18T15:24:50;32.20;38.20
3548;DHT22;1788;49.400;11.092;2022-08-18T15:27:16;32.00;38.20
3548;DHT22;1788;49.400;11.092;2022-08-18T15:29:44;31.90;38.50
3548;DHT22;1788;49.400;11.092;2022-08-18T15:32:11;31.80;38.70
3548;DHT22;1788;49.400;11.092;2022-08-18T15:34:38;31.80;38.80
3548;DHT22;1788;49.400;11.092;2022-08-18T15:37:07;31.80;38.90
3548;DHT22;1788;49.400;11.092;2022-08-18T15:39:33;31.80;39.00
3548;DHT22;1788;49.400;11.092;2022-08-18T15:42:00;31.80;39.00
3548;DHT22;1788;49.400;11.092;2022-08-18T15:44:27;31.80;39.10
3548;DHT22;1788;49.400;11.092;2022-08-18T15:46:54;31.70;39.10
3548;DHT22;1788;49.400;11.092;2022-08-18T15:49:21;31.80;39.10
3548;DHT22;1788;49.400;11.092;2022-08-18T15:51:47;31.80;39.10
3548;DHT22;1788;49.400;11.092;2022-08-18T15:54:14;31.70;39.20
3548;DHT22;1788;49.400;11.092;2022-08-18T15:56:41;31.60;39.20
3548;DHT22;1788;49.400;11.092;2022-08-18T15:59:08;31.50;39.40
3548;DHT22;1788;49.400;11.092;2022-08-18T16:01:35;31.50;39.50
3548;DHT22;1788;49.400;11.092;2022-08-18T16:06:28;31.40;39.50
3548;DHT22;1788;49.400;11.092;2022-08-18T16:08:55;31.40;39.70
3548;DHT22;1788;49.400;11.092;2022-08-18T16:11:23;31.30;39.70
3548;DHT22;1788;49.400;11.092;2022-08-18T16:13:50;31.20;39.80
3548;DHT22;1788;49.400;11.092;2022-08-18T16:16:18;30.90;40.10
3548;DHT22;1788;49.400;11.092;2022-08-18T16:18:44;30.90;40.10
3548;DHT22;1788;49.400;11.092;2022-08-18T16:21:13;30.80;40.50
3548;DHT22;1788;49.400;11.092;2022-08-18T16:23:40;30.80;40.50
3548;DHT22;1788;49.400;11.092;2022-08-18T16:26:06;30.70;40.50
3548;DHT22;1788;49.400;11.092;2022-08-18T16:28:32;30.70;40.60
3548;DHT22;1788;49.400;11.092;2022-08-18T16:30:59;30.70;40.70
3548;DHT22;1788;49.400;11.092;2022-08-18T16:33:26;30.60;40.70
3548;DHT22;1788;49.400;11.092;2022-08-18T16:35:53;30.50;40.90
3548;DHT22;1788;49.400;11.092;2022-08-18T16:38:19;30.50;40.90
3548;DHT22;1788;49.400;11.092;2022-08-18T16:40:47;30.50;41.00
3548;DHT22;1788;49.400;11.092;2022-08-18T16:43:13;30.40;41.00
3548;DHT22;1788;49.400;11.092;2022-08-18T16:45:41;30.40;41.10
3548;DHT22;1788;49.400;11.092;2022-08-18T16:48:08;30.40;41.20
3548;DHT22;1788;49.400;11.092;2022-08-18T16:50:35;30.30;41.20
3548;DHT22;1788;49.400;11.092;2022-08-18T16:53:02;30.20;41.10
3548;DHT22;1788;49.400;11.092;2022-08-18T16:55:30;30.20;41.20
3548;DHT22;1788;49.400;11.092;2022-08-18T16:57:57;30.10;41.20
3548;DHT22;1788;49.400;11.092;2022-08-18T17:00:24;30.00;41.30
3548;DHT22;1788;49.400;11.092;2022-08-18T17:02:51;30.00;41.30
3548;DHT22;1788;49.400;11.092;2022-08-18T17:05:18;29.90;41.30
3548;DHT22;1788;49.400;11.092;2022-08-18T17:07:45;29.90;41.40
3548;DHT22;1788;49.400;11.092;2022-08-18T17:10:13;29.80;41.60
3548;DHT22;1788;49.400;11.092;2022-08-18T17:12:40;29.80;41.60
3548;DHT22;1788;49.400;11.092;2022-08-18T17:15:07;29.80;42.40
3548;DHT22;1788;49.400;11.092;2022-08-18T17:17:34;29.70;41.80
3548;DHT22;1788;49.400;11.092;2022-08-18T17:20:02;29.70;42.00
3548;DHT22;1788;49.400;11.092;2022-08-18T17:22:28;29.60;41.90
3548;DHT22;1788;49.400;11.092;2022-08-18T17:24:57;29.60;42.20
3548;DHT22;1788;49.400;11.092;2022-08-18T17:27:27;29.50;42.30
3548;DHT22;1788;49.400;11.092;2022-08-18T17:32:23;29.50;42.40
3548;DHT22;1788;49.400;11.092;2022-08-18T17:34:47;29.50;42.50
3548;DHT22;1788;49.400;11.092;2022-08-18T17:37:14;29.40;42.60
3548;DHT22;1788;49.400;11.092;2022-08-18T17:39:43;29.30;42.70
3548;DHT22;1788;49.400;11.092;2022-08-18T17:42:07;29.30;42.80
3548;DHT22;1788;49.400;11.092;2022-08-18T17:44:34;29.30;43.00
3548;DHT22;1788;49.400;11.092;2022-08-18T17:47:02;29.20;43.10
3548;DHT22;1788;49.400;11.092;2022-08-18T17:49:31;29.20;43.20
3548;DHT22;1788;49.400;11.092;2022-08-18T17:51:55;29.20;43.40
3548;DHT22;1788;49.400;11.092;2022-08-18T17:56:51;29.10;43.60
3548;DHT22;1788;49.400;11.092;2022-08-18T17:59:19;29.10;43.80
3548;DHT22;1788;49.400;11.092;2022-08-18T18:01:42;29.00;43.80
3548;DHT22;1788;49.400;11.092;2022-08-18T18:04:10;29.00;44.10
3548;DHT22;1788;49.400;11.092;2022-08-18T18:06:40;29.00;44.10
3548;DHT22;1788;49.400;11.092;2022-08-18T18:09:08;28.90;44.20
3548;DHT22;1788;49.400;11.092;2022-08-18T18:16:32;28.80;44.40
3548;DHT22;1788;49.400;11.092;2022-08-18T18:18:59;28.80;44.40
3548;DHT22;1788;49.400;11.092;2022-08-18T18:21:26;28.80;44.50
3548;DHT22;1788;49.400;11.092;2022-08-18T18:23:54;28.70;44.60
3548;DHT22;1788;49.400;11.092;2022-08-18T18:26:23;28.70;45.00
3548;DHT22;1788;49.400;11.092;2022-08-18T18:28:48;28.70;44.70
3548;DHT22;1788;49.400;11.092;2022-08-18T18:31:17;28.60;44.70
3548;DHT22;1788;49.400;11.092;2022-08-18T18:33:45;28.60;44.80
3548;DHT22;1788;49.400;11.092;2022-08-18T18:36:29;28.50;44.80
3548;DHT22;1788;49.400;11.092;2022-08-18T18:38:47;28.50;44.90
3548;DHT22;1788;49.400;11.092;2022-08-18T18:43:42;28.40;45.20
3548;DHT22;1788;49.400;11.092;2022-08-18T18:51:03;28.30;46.00
3548;DHT22;1788;49.400;11.092;2022-08-18T18:53:36;28.30;46.20
3548;DHT22;1788;49.400;11.092;2022-08-18T18:55:59;28.20;46.30
3548;DHT22;1788;49.400;11.092;2022-08-18T18:58:27;28.20;46.50
3548;DHT22;1788;49.400;11.092;2022-08-18T19:00:53;28.10;46.70
3548;DHT22;1788;49.400;11.092;2022-08-18T19:03:22;28.00;47.00
3548;DHT22;1788;49.400;11.092;2022-08-18T19:15:33;27.90;47.50
3548;DHT22;1788;49.400;11.092;2022-08-18T19:20:31;27.80;47.80
3548;DHT22;1788;49.400;11.092;2022-08-18T19:22:58;27.80;47.80
3548;DHT22;1788;49.400;11.092;2022-08-18T19:27:55;27.70;48.00
3548;DHT22;1788;49.400;11.092;2022-08-18T19:30:22;27.60;48.10
3548;DHT22;1788;49.400;11.092;2022-08-18T19:32:53;27.60;48.30
3548;DHT22;1788;49.400;11.092;2022-08-18T19:52:32;27.30;48.90
3548;DHT22;1788;49.400;11.092;2022-08-18T19:54:58;27.30;49.00
3548;DHT22;1788;49.400;11.092;2022-08-18T19:57:25;27.20;49.00
3548;DHT22;1788;49.400;11.092;2022-08-18T20:04:46;27.20;49.20
3548;DHT22;1788;49.400;11.092;2022-08-18T20:26:46;27.10;49.40
3548;DHT22;1788;49.400;11.092;2022-08-18T20:29:13;27.10;49.40
3548;DHT22;1788;49.400;11.092;2022-08-18T20:34:07;27.00;49.40
3548;DHT22;1788;49.400;11.092;2022-08-18T20:36:33;27.10;49.50
3548;DHT22;1788;49.400;11.092;2022-08-18T20:46:26;27.00;49.30
3548;DHT22;1788;49.400;11.092;2022-08-18T20:58:35;26.70;49.00
3548;DHT22;1788;49.400;11.092;2022-08-18T21:01:00;26.60;49.00
3548;DHT22;1788;49.400;11.092;2022-08-18T21:05:55;26.40;49.20
3548;DHT22;1788;49.400;11.092;2022-08-18T21:08:23;26.40;49.20
3548;DHT22;1788;49.400;11.092;2022-08-18T21:10:48;26.40;49.30
3548;DHT22;1788;49.400;11.092;2022-08-18T21:15:42;26.30;49.90
3548;DHT22;1788;49.400;11.092;2022-08-18T21:20:36;26.20;50.30
3548;DHT22;1788;49.400;11.092;2022-08-18T21:25:30;26.00;50.80